createdAt,value
2023-04-14T00:01:32.446Z,5.49
2023-04-14T00:03:59.187Z,5.46
2023-04-14T00:06:27.322Z,5.24
2023-04-14T00:08:53.836Z,5.30
2023-04-14T00:11:20.462Z,5.43
2023-04-14T00:13:46.957Z,5.44
2023-04-14T00:16:13.419Z,5.42
2023-04-14T00:18:40.005Z,5.33
2023-04-14T00:21:06.626Z,5.35
2023-04-14T00:23:33.188Z,5.11
2023-04-14T00:25:59.770Z,5.26
2023-04-14T00:28:26.268Z,5.24
2023-04-14T00:30:52.725Z,5.26
2023-04-14T00:33:19.253Z,5.11
2023-04-14T00:35:45.891Z,5.23
2023-04-14T00:38:12.382Z,5.38
2023-04-14T00:40:38.915Z,5.18
2023-04-14T00:43:05.376Z,5.34
2023-04-14T00:45:32.646Z,4.98
2023-04-14T00:47:59.138Z,5.25
2023-04-14T00:50:26.028Z,5.37
2023-04-14T00:52:53.560Z,5.44
2023-04-14T00:55:21.451Z,5.31
2023-04-14T00:57:48.759Z,5.10
2023-04-14T01:00:15.832Z,5.24
2023-04-14T01:02:42.867Z,5.29
2023-04-14T01:05:09.795Z,5.38
2023-04-14T01:07:36.968Z,5.26
2023-04-14T01:10:04.134Z,5.04
2023-04-14T01:12:39.137Z,4.85
2023-04-14T01:15:15.913Z,4.92
2023-04-14T01:18:02.643Z,4.78
2023-04-14T01:20:33.215Z,4.63
2023-04-14T01:23:13.292Z,3.95
2023-04-14T01:25:48.600Z,3.28
2023-04-14T01:28:21.398Z,3.53
2023-04-14T01:31:06.535Z,4.03
2023-04-14T01:33:36.619Z,4.12
2023-04-14T01:36:06.061Z,4.37
2023-04-14T01:38:34.391Z,4.40
2023-04-14T01:41:04.727Z,4.37
2023-04-14T01:43:32.217Z,3.77
2023-04-14T01:46:00.739Z,4.03
2023-04-14T01:48:28.279Z,3.64
2023-04-14T01:50:55.994Z,3.54
2023-04-14T01:53:23.544Z,3.32
2023-04-14T01:55:50.644Z,3.50
2023-04-14T01:58:18.990Z,3.95
2023-04-14T02:00:46.049Z,4.10
2023-04-14T02:03:13.498Z,4.19
2023-04-14T02:05:40.178Z,4.24
2023-04-14T02:08:09.966Z,3.99
2023-04-14T02:10:38.137Z,4.22
2023-04-14T02:13:04.969Z,4.07
2023-04-14T02:15:32.422Z,3.74
2023-04-14T02:17:59.392Z,3.86
2023-04-14T02:20:26.386Z,3.94
2023-04-14T02:22:53.276Z,3.82
2023-04-14T02:25:23.769Z,3.20
2023-04-14T02:27:54.944Z,3.23
2023-04-14T02:30:27.612Z,3.70
2023-04-14T02:32:57.529Z,3.70
2023-04-14T02:35:28.542Z,3.93
2023-04-14T02:37:56.394Z,3.96
2023-04-14T02:40:27.330Z,4.34
2023-04-14T02:42:57.768Z,4.49
2023-04-14T02:45:27.625Z,4.33
2023-04-14T02:47:56.068Z,4.40
2023-04-14T02:50:23.355Z,4.46
2023-04-14T02:52:51.763Z,4.50
2023-04-14T02:55:21.842Z,4.66
2023-04-14T02:57:50.140Z,4.73
2023-04-14T03:00:17.136Z,4.76
2023-04-14T03:02:45.046Z,4.68
2023-04-14T03:05:12.393Z,4.49
2023-04-14T03:07:40.483Z,4.67
2023-04-14T03:10:08.852Z,4.75
2023-04-14T03:12:35.578Z,4.88
2023-04-14T03:15:02.665Z,4.75
2023-04-14T03:17:29.270Z,4.61
2023-04-14T03:19:56.539Z,4.31
2023-04-14T03:22:23.445Z,4.32
2023-04-14T03:24:50.937Z,4.29
2023-04-14T03:27:22.053Z,4.43
2023-04-14T03:29:52.808Z,4.55
2023-04-14T03:32:19.961Z,4.26
2023-04-14T03:34:48.432Z,4.12
2023-04-14T03:37:17.177Z,4.19
2023-04-14T03:39:43.712Z,4.54
2023-04-14T03:42:11.487Z,4.49
2023-04-14T03:44:39.889Z,4.22
2023-04-14T03:47:08.242Z,4.43
2023-04-14T03:49:36.400Z,4.58
2023-04-14T03:52:07.734Z,4.73
2023-04-14T03:54:34.670Z,4.59
2023-04-14T03:57:04.736Z,4.70
2023-04-14T03:59:31.997Z,4.79
2023-04-14T04:01:59.096Z,4.76
2023-04-14T04:04:26.519Z,4.76
2023-04-14T04:06:53.779Z,4.67
2023-04-14T04:09:22.549Z,4.49
2023-04-14T04:11:49.522Z,4.48
2023-04-14T04:14:17.818Z,4.48
2023-04-14T04:16:47.514Z,4.53
2023-04-14T04:19:14.542Z,4.75
2023-04-14T04:21:43.074Z,4.84
2023-04-14T04:24:10.409Z,4.85
2023-04-14T04:26:37.115Z,4.77
2023-04-14T04:29:04.718Z,4.82
2023-04-14T04:31:32.998Z,4.92
2023-04-14T04:33:59.674Z,4.65
2023-04-14T04:36:27.804Z,4.45
2023-04-14T04:38:54.375Z,4.29
2023-04-14T04:41:24.185Z,4.47
2023-04-14T04:43:50.708Z,4.36
2023-04-14T04:46:24.983Z,4.45
2023-04-14T04:48:52.605Z,4.38
2023-04-14T04:51:19.177Z,4.38
2023-04-14T04:53:45.886Z,4.71
2023-04-14T04:56:12.384Z,4.61
2023-04-14T04:58:38.834Z,4.77
2023-04-14T05:01:11.499Z,4.80
2023-04-14T05:03:38.200Z,4.90
2023-04-14T05:06:04.829Z,4.94
2023-04-14T05:08:31.431Z,4.92
2023-04-14T05:10:57.926Z,4.84
2023-04-14T05:13:25.032Z,5.03
2023-04-14T05:15:52.105Z,4.69
2023-04-14T05:18:18.608Z,4.85
2023-04-14T05:20:45.118Z,4.67
2023-04-14T05:23:11.646Z,4.92
2023-04-14T05:25:38.097Z,4.87
2023-04-14T05:28:04.564Z,4.49
2023-04-14T05:30:31.077Z,4.78
2023-04-14T05:32:57.636Z,4.67
2023-04-14T05:35:25.365Z,4.80
2023-04-14T05:37:51.982Z,4.77
2023-04-14T05:40:19.957Z,4.78
2023-04-14T05:42:46.430Z,4.62
2023-04-14T05:45:12.976Z,4.65
2023-04-14T05:47:39.834Z,4.88
2023-04-14T05:50:07.371Z,4.78
2023-04-14T05:52:33.871Z,4.94
2023-04-14T05:55:00.382Z,4.91
2023-04-14T05:57:26.996Z,4.97
2023-04-14T05:59:53.479Z,4.89
2023-04-14T06:02:20.076Z,4.91
2023-04-14T06:04:47.508Z,4.88
2023-04-14T06:07:14.109Z,4.72
2023-04-14T06:09:42.666Z,4.89
2023-04-14T06:12:09.287Z,5.00
2023-04-14T06:14:35.873Z,4.95
2023-04-14T06:17:02.337Z,4.99
2023-04-14T06:19:28.854Z,5.04
2023-04-14T06:21:55.393Z,5.02
2023-04-14T06:24:21.851Z,5.16
2023-04-14T06:26:48.379Z,5.08
2023-04-14T06:29:14.864Z,5.11
2023-04-14T06:31:41.707Z,4.74
2023-04-14T06:34:08.215Z,4.74
2023-04-14T06:36:34.694Z,4.63
2023-04-14T06:39:01.518Z,4.79
2023-04-14T06:41:28.212Z,4.98
2023-04-14T06:43:54.670Z,4.73
2023-04-14T06:46:21.345Z,5.01
2023-04-14T06:48:47.879Z,5.12
2023-04-14T06:51:14.471Z,4.86
2023-04-14T06:53:41.144Z,5.02
2023-04-14T06:56:07.897Z,5.04
2023-04-14T06:58:34.428Z,4.48
2023-04-14T07:01:01.697Z,4.80
2023-04-14T07:03:30.496Z,4.90
2023-04-14T07:06:04.723Z,4.76
2023-04-14T07:08:33.016Z,4.82
2023-04-14T07:11:00.947Z,4.87
2023-04-14T07:13:27.540Z,4.49
2023-04-14T07:44:22.363Z,3.87
2023-04-14T07:46:48.988Z,3.97
2023-04-14T07:49:15.463Z,4.30
2023-04-14T07:51:42.012Z,4.25
2023-04-14T07:54:08.630Z,4.08
2023-04-14T07:56:35.460Z,4.16
2023-04-14T07:59:02.697Z,4.19
2023-04-14T08:01:29.408Z,4.34
2023-04-14T08:03:56.123Z,4.03
2023-04-14T08:06:23.002Z,4.25
2023-04-14T08:08:49.528Z,4.44
2023-04-14T08:11:16.081Z,4.55
2023-04-14T08:13:43.956Z,4.55
2023-04-14T08:16:10.738Z,4.53
2023-04-14T08:18:39.727Z,4.60
2023-04-14T08:21:06.846Z,4.59
2023-04-14T08:23:34.071Z,4.25
2023-04-14T08:26:00.645Z,4.39
2023-04-14T08:28:28.644Z,4.59
2023-04-14T08:30:55.339Z,4.59
2023-04-14T08:33:22.189Z,4.72
2023-04-14T08:35:56.227Z,4.46
2023-04-14T08:38:26.936Z,4.68
2023-04-14T08:40:58.833Z,4.39
2023-04-14T08:43:25.419Z,4.25
2023-04-14T08:45:53.451Z,4.60
2023-04-14T08:48:22.055Z,4.60
2023-04-14T08:51:02.413Z,4.70
2023-04-14T08:53:29.803Z,4.53
2023-04-14T08:55:58.721Z,4.68
2023-04-14T08:58:25.708Z,4.59
2023-04-14T09:00:53.472Z,4.70
2023-04-14T09:03:21.274Z,4.46
2023-04-14T09:05:48.496Z,4.23
2023-04-14T09:08:16.681Z,4.46
2023-04-14T09:10:43.418Z,4.39
2023-04-14T09:13:12.792Z,4.69
2023-04-14T09:15:39.399Z,4.65
2023-04-14T09:18:06.077Z,4.61
2023-04-14T09:20:36.436Z,4.83
2023-04-14T09:23:04.583Z,4.90
2023-04-14T09:25:31.973Z,5.08
2023-04-14T09:27:58.762Z,4.91
2023-04-14T09:30:25.768Z,5.00
2023-04-14T09:32:56.546Z,5.13
2023-04-14T09:35:24.332Z,5.26
2023-04-14T09:37:51.005Z,5.21
2023-04-14T09:40:31.072Z,5.23
2023-04-14T09:42:57.988Z,4.97
2023-04-14T09:45:45.019Z,4.78
2023-04-14T09:48:15.101Z,4.67
2023-04-14T09:51:06.874Z,5.13
2023-04-14T09:53:35.707Z,5.20
2023-04-14T09:56:06.017Z,5.17
2023-04-14T09:58:38.978Z,4.91
2023-04-14T10:01:16.870Z,5.02
2023-04-14T10:03:48.280Z,5.13
2023-04-14T10:06:23.183Z,5.15
2023-04-14T10:08:54.713Z,5.21
2023-04-14T10:11:25.184Z,5.28
2023-04-14T10:14:00.969Z,5.25
2023-04-14T10:16:27.741Z,5.13
2023-04-14T10:18:55.354Z,5.17
2023-04-14T10:21:24.959Z,4.94
2023-04-14T10:23:52.174Z,5.06
2023-04-14T10:26:20.001Z,4.79
2023-04-14T10:28:49.477Z,4.93
2023-04-14T10:31:30.970Z,4.88
2023-04-14T10:33:57.727Z,4.90
2023-04-14T10:36:25.808Z,4.91
2023-04-14T10:39:02.245Z,5.10
2023-04-14T10:41:50.345Z,4.76
2023-04-14T10:44:34.689Z,4.80
2023-04-14T10:47:04.807Z,4.81
2023-04-14T10:49:39.139Z,4.91
2023-04-14T10:52:27.555Z,5.01
2023-04-14T10:54:57.229Z,5.08
2023-04-14T10:57:28.001Z,5.10
2023-04-14T10:59:57.010Z,5.31
2023-04-14T11:02:34.485Z,5.32
2023-04-14T11:05:11.487Z,5.27
2023-04-14T11:07:44.845Z,4.82
2023-04-14T11:10:17.075Z,4.73
2023-04-14T11:12:44.768Z,4.22
2023-04-14T11:15:11.756Z,3.95
2023-04-14T11:17:45.794Z,4.40
2023-04-14T11:20:17.312Z,4.63
2023-04-14T11:22:47.732Z,4.82
2023-04-14T11:25:22.192Z,4.82
2023-04-14T11:27:50.472Z,4.95
2023-04-14T11:30:18.815Z,5.22
2023-04-14T11:32:47.778Z,5.34
2023-04-14T11:35:16.034Z,5.28
2023-04-14T11:37:43.335Z,5.34
2023-04-14T11:40:11.777Z,5.32
2023-04-14T11:42:39.092Z,5.44
2023-04-14T11:45:07.255Z,5.52
2023-04-14T11:47:33.861Z,5.34
2023-04-14T11:50:05.352Z,5.53
2023-04-14T11:52:34.577Z,5.62
2023-04-14T11:55:02.092Z,5.61
2023-04-14T11:57:28.729Z,5.79
2023-04-14T11:59:56.281Z,5.87
2023-04-14T12:02:23.216Z,6.00
2023-04-14T12:04:51.783Z,6.04
2023-04-14T12:07:20.285Z,6.03
2023-04-14T12:09:49.002Z,5.87
2023-04-14T12:12:17.393Z,5.65
2023-04-14T12:14:46.215Z,5.40
2023-04-14T12:17:15.497Z,5.51
2023-04-14T12:19:42.541Z,5.84
2023-04-14T12:22:09.687Z,5.82
2023-04-14T12:24:38.432Z,5.98
2023-04-14T12:27:06.790Z,5.92
2023-04-14T12:29:34.783Z,5.87
2023-04-14T12:32:15.134Z,6.11
2023-04-14T12:34:52.396Z,6.08
2023-04-14T12:37:27.080Z,5.97
2023-04-14T12:40:00.106Z,5.29
2023-04-14T12:42:29.612Z,5.44
2023-04-14T12:45:03.052Z,5.78
2023-04-14T12:47:34.303Z,5.65
2023-04-14T12:50:21.639Z,5.91
2023-04-14T12:52:48.286Z,6.02
2023-04-14T12:55:28.609Z,5.99
2023-04-14T12:57:55.935Z,6.04
2023-04-14T13:00:24.136Z,5.70
2023-04-14T13:02:53.780Z,5.69
2023-04-14T13:05:20.498Z,6.00
2023-04-14T13:07:47.287Z,6.13
2023-04-14T13:10:14.167Z,6.16
2023-04-14T13:12:42.010Z,6.08
2023-04-14T13:15:09.232Z,6.08
2023-04-14T13:17:56.033Z,6.07
2023-04-14T13:20:22.695Z,5.83
2023-04-14T13:22:49.339Z,5.71
2023-04-14T13:25:16.082Z,5.55
2023-04-14T13:27:42.693Z,5.84
2023-04-14T13:30:09.812Z,6.11
2023-04-14T13:32:36.824Z,6.11
2023-04-14T13:35:04.061Z,5.93
2023-04-14T13:37:31.020Z,6.28
2023-04-14T13:39:57.605Z,6.41
2023-04-14T13:42:24.214Z,6.43
2023-04-14T13:44:50.904Z,6.59
2023-04-14T13:47:18.977Z,6.31
2023-04-14T13:49:45.620Z,6.41
2023-04-14T13:52:12.236Z,6.36
2023-04-14T13:54:38.887Z,5.72
2023-04-14T13:57:06.008Z,5.10
2023-04-14T13:59:33.160Z,4.76
2023-04-14T14:01:59.875Z,4.98
2023-04-14T14:04:27.473Z,5.14
2023-04-14T14:06:54.170Z,4.85
2023-04-14T14:09:21.149Z,4.71
2023-04-14T14:11:47.800Z,4.32
2023-04-14T14:14:14.942Z,4.17
2023-04-14T14:16:41.733Z,4.01
2023-04-14T14:19:11.011Z,4.03
2023-04-14T14:21:37.915Z,3.87
2023-04-14T14:24:05.029Z,3.76
2023-04-14T14:26:31.852Z,3.74
2023-04-14T14:28:58.496Z,3.76
2023-04-14T14:31:25.283Z,3.60
2023-04-14T14:33:51.923Z,3.47
2023-04-14T14:36:18.615Z,3.39
2023-04-14T14:38:45.438Z,3.29
2023-04-14T14:41:12.086Z,3.44
2023-04-14T14:43:38.809Z,3.57
2023-04-14T14:46:05.885Z,3.53
2023-04-14T14:48:32.541Z,3.47
2023-04-14T14:50:59.184Z,3.69
2023-04-14T14:53:25.925Z,3.66
2023-04-14T14:55:52.596Z,3.70
2023-04-14T14:58:19.208Z,3.72
2023-04-14T15:00:46.829Z,3.75
2023-04-14T15:03:13.640Z,3.86
2023-04-14T15:05:40.849Z,4.19
2023-04-14T15:08:07.549Z,4.18
2023-04-14T15:10:34.735Z,4.18
2023-04-14T15:13:01.391Z,4.63
2023-04-14T15:15:28.198Z,4.81
2023-04-14T15:17:54.915Z,4.95
2023-04-14T15:20:21.621Z,4.97
2023-04-14T15:22:48.286Z,4.95
2023-04-14T15:25:14.916Z,5.23
2023-04-14T15:27:41.763Z,5.54
2023-04-14T15:30:08.996Z,5.75
2023-04-14T15:32:35.667Z,5.81
2023-04-14T15:35:02.618Z,5.90
2023-04-14T15:37:29.360Z,5.68
2023-04-14T15:39:56.239Z,5.31
2023-04-14T15:42:22.971Z,5.70
2023-04-14T15:44:51.162Z,5.87
2023-04-14T15:47:18.416Z,6.17
2023-04-14T15:49:45.886Z,6.17
2023-04-14T15:52:16.699Z,6.21
2023-04-14T15:54:43.385Z,6.32
2023-04-14T15:57:10.004Z,6.27
2023-04-14T15:59:37.076Z,6.18
2023-04-14T16:02:04.361Z,5.98
2023-04-14T16:04:31.442Z,5.91
2023-04-14T16:06:58.184Z,5.64
2023-04-14T16:09:24.889Z,5.12
2023-04-14T16:11:52.733Z,5.06
2023-04-14T16:14:19.514Z,5.30
2023-04-14T16:16:47.223Z,5.37
2023-04-14T16:19:17.216Z,5.67
2023-04-14T16:21:43.901Z,5.86
2023-04-14T16:24:10.672Z,6.04
2023-04-14T16:26:38.427Z,6.17
2023-04-14T16:29:05.391Z,6.08
2023-04-14T16:31:32.360Z,5.80
2023-04-14T16:33:59.285Z,5.89
2023-04-14T16:36:26.433Z,5.80
2023-04-14T16:38:53.157Z,5.85
2023-04-14T16:41:20.398Z,5.86
2023-04-14T16:43:47.178Z,6.02
2023-04-14T16:46:14.104Z,5.87
2023-04-14T16:48:41.410Z,6.04
2023-04-14T16:51:09.197Z,6.07
2023-04-14T16:53:36.544Z,6.06
2023-04-14T16:56:05.171Z,5.75
2023-04-14T16:58:31.936Z,5.64
2023-04-14T17:00:58.790Z,5.57
2023-04-14T17:03:25.610Z,5.78
2023-04-14T17:05:52.376Z,6.03
2023-04-14T17:08:19.682Z,6.13
2023-04-14T17:10:46.624Z,6.24
2023-04-14T17:13:13.357Z,6.25
2023-04-14T17:15:40.000Z,6.40
2023-04-14T17:18:06.696Z,6.32
2023-04-14T17:20:33.282Z,6.34
2023-04-14T17:23:00.340Z,6.27
2023-04-14T17:25:27.422Z,6.27
2023-04-14T17:27:54.050Z,6.30
2023-04-14T17:30:20.703Z,6.23
2023-04-14T17:32:48.798Z,6.42
2023-04-14T17:35:15.538Z,6.34
2023-04-14T17:37:42.343Z,6.28
2023-04-14T17:40:10.168Z,6.44
2023-04-14T17:42:37.783Z,6.38
2023-04-14T17:45:05.207Z,6.46
2023-04-14T17:47:37.742Z,5.87
2023-04-14T17:50:05.173Z,5.91
2023-04-14T17:52:32.912Z,5.78
2023-04-14T17:55:00.173Z,5.56
2023-04-14T17:57:26.777Z,5.58
2023-04-14T17:59:56.230Z,5.19
2023-04-14T18:02:23.071Z,5.01
2023-04-14T18:04:49.873Z,5.07
2023-04-14T18:07:16.796Z,4.96
2023-04-14T18:09:43.507Z,4.83
2023-04-14T18:12:10.997Z,4.85
2023-04-14T18:14:37.657Z,4.93
2023-04-14T18:17:05.036Z,4.92
2023-04-14T18:19:31.808Z,4.67
2023-04-14T18:21:58.484Z,4.88
2023-04-14T18:26:54.580Z,4.81
2023-04-14T18:29:21.204Z,4.91
2023-04-14T18:31:48.136Z,4.76
2023-04-14T18:34:14.742Z,4.68
2023-04-14T18:36:41.442Z,4.78
2023-04-14T18:39:08.153Z,4.81
2023-04-14T18:41:35.212Z,4.81
2023-04-14T18:44:03.448Z,4.86
2023-04-14T18:46:30.654Z,4.79
2023-04-14T18:48:57.292Z,4.73
2023-04-14T18:51:23.946Z,4.64
2023-04-14T18:53:50.550Z,4.67
2023-04-14T18:56:17.217Z,4.44
2023-04-14T18:58:43.796Z,4.46
2023-04-14T19:01:10.419Z,4.44
2023-04-14T19:03:37.767Z,4.42
2023-04-14T19:06:04.809Z,4.37
2023-04-14T19:08:31.438Z,4.34
2023-04-14T19:10:59.290Z,4.38
2023-04-14T19:13:26.169Z,4.35
2023-04-14T19:15:52.960Z,4.42
2023-04-14T19:18:20.354Z,4.34
2023-04-14T19:20:47.788Z,4.36
2023-04-14T19:23:14.447Z,4.30
2023-04-14T19:25:41.887Z,4.25
2023-04-14T19:28:16.399Z,4.32
2023-04-14T19:30:44.968Z,4.38
2023-04-14T19:33:12.276Z,4.55
2023-04-14T19:35:39.207Z,4.66
2023-04-14T19:38:05.882Z,4.76
2023-04-14T19:40:32.459Z,4.79
2023-04-14T19:42:59.124Z,4.83
2023-04-14T19:45:25.762Z,4.88
2023-04-14T19:47:52.428Z,4.98
2023-04-14T19:50:19.057Z,4.96
2023-04-14T19:52:48.530Z,5.16
2023-04-14T19:55:15.890Z,4.99
2023-04-14T19:57:42.471Z,4.92
2023-04-14T20:00:11.563Z,4.92
2023-04-14T20:02:38.755Z,4.92
2023-04-14T20:05:05.968Z,4.91
2023-04-14T20:07:33.360Z,4.82
2023-04-14T20:10:01.483Z,4.91
2023-04-14T20:12:28.472Z,4.91
2023-04-14T20:14:55.057Z,4.91
2023-04-14T20:17:23.327Z,4.73
2023-04-14T20:19:50.658Z,4.70
2023-04-14T20:22:17.327Z,4.46
2023-04-14T20:24:44.077Z,4.25
2023-04-14T20:27:11.074Z,4.34
2023-04-14T20:29:37.666Z,4.36
2023-04-14T20:32:04.348Z,4.31
2023-04-14T20:34:30.957Z,4.35
2023-04-14T20:36:57.578Z,4.35
2023-04-14T20:39:24.686Z,4.40
2023-04-14T20:41:51.732Z,4.32
2023-04-14T20:44:18.316Z,4.39
2023-04-14T20:46:45.225Z,4.40
2023-04-14T20:49:11.905Z,4.52
2023-04-14T20:54:07.004Z,4.45
2023-04-14T20:56:34.282Z,4.55
2023-04-14T20:59:01.187Z,4.40
2023-04-14T21:01:28.234Z,4.49
2023-04-14T21:03:54.994Z,4.61
2023-04-14T21:06:22.157Z,4.44
2023-04-14T21:08:48.777Z,4.44
2023-04-14T21:11:18.650Z,4.34
2023-04-14T21:15:25.430Z,4.31
2023-04-14T21:16:34.026Z,4.32
2023-04-14T21:19:02.529Z,4.40
2023-04-14T21:21:29.409Z,4.49
2023-04-14T21:23:56.036Z,4.42
2023-04-14T21:26:23.900Z,4.49
2023-04-14T21:28:50.886Z,4.55
2023-04-14T21:31:17.592Z,4.57
2023-04-14T21:33:44.284Z,4.41
2023-04-14T21:36:10.994Z,4.48
2023-04-14T21:38:39.009Z,4.40
2023-04-14T21:41:06.332Z,4.39
2023-04-14T21:43:32.955Z,4.45
2023-04-14T21:45:59.579Z,4.52
2023-04-14T21:48:26.409Z,4.53
2023-04-14T21:50:53.019Z,4.63
2023-04-14T21:53:20.376Z,4.54
2023-04-14T21:55:47.353Z,4.55
2023-04-14T21:58:34.004Z,4.54
2023-04-14T22:01:01.560Z,4.55
2023-04-14T22:03:28.437Z,4.48
2023-04-14T22:05:55.418Z,4.47
2023-04-14T22:08:23.648Z,4.47
2023-04-14T22:10:50.345Z,4.52
2023-04-14T22:13:16.946Z,4.41
2023-04-14T22:15:43.586Z,4.40
2023-04-14T22:18:10.803Z,4.45
2023-04-14T22:20:37.497Z,4.37
2023-04-14T22:23:04.075Z,4.30
2023-04-14T22:25:30.890Z,4.32
2023-04-14T22:27:57.818Z,4.27
2023-04-14T22:30:24.521Z,4.31
2023-04-14T22:32:51.261Z,4.34
2023-04-14T22:35:17.893Z,4.35
2023-04-14T22:37:44.473Z,4.44
2023-04-14T22:40:11.216Z,4.46
2023-04-14T22:42:37.842Z,4.43
2023-04-14T22:45:05.656Z,4.60
2023-04-14T22:47:32.564Z,4.73
2023-04-14T22:50:00.218Z,4.88
2023-04-14T22:52:27.956Z,4.73
2023-04-14T22:54:54.676Z,4.80
2023-04-14T22:57:21.547Z,4.70
2023-04-14T22:59:48.209Z,4.67
2023-04-14T23:02:15.012Z,4.69
2023-04-14T23:04:42.252Z,4.65
2023-04-14T23:07:09.037Z,4.66
2023-04-14T23:09:35.619Z,4.64
2023-04-14T23:12:02.817Z,4.56
2023-04-14T23:14:29.466Z,4.49
2023-04-14T23:16:56.174Z,4.53
2023-04-14T23:19:22.816Z,4.51
2023-04-14T23:21:51.099Z,4.40
2023-04-14T23:24:18.102Z,4.38
2023-04-14T23:26:44.979Z,4.24
2023-04-14T23:29:11.869Z,4.28
2023-04-14T23:31:38.603Z,4.35
2023-04-14T23:34:07.647Z,4.39
2023-04-14T23:36:34.228Z,4.47
2023-04-14T23:39:01.038Z,4.39
2023-04-14T23:41:28.529Z,4.40
2023-04-14T23:43:55.193Z,4.36
2023-04-14T23:46:21.824Z,4.39
2023-04-14T23:48:49.598Z,4.48
2023-04-14T23:51:18.090Z,4.42
2023-04-14T23:53:47.569Z,4.42
2023-04-14T23:56:14.156Z,4.50
2023-04-14T23:58:40.825Z,4.55
